createdAt,value
2018-05-14T00:01:07.566Z,100883.44
2018-05-14T00:03:35.045Z,100889.66
2018-05-14T00:06:02.494Z,100884.55
2018-05-14T00:08:29.972Z,100879.83
2018-05-14T00:10:58.280Z,100876.91
2018-05-14T00:13:25.910Z,100879.48
2018-05-14T00:15:53.371Z,100877.84
2018-05-14T00:18:20.849Z,100873.91
2018-05-14T00:20:48.388Z,100880.17
2018-05-14T00:23:15.957Z,100880.33
2018-05-14T00:25:43.439Z,100877.11
2018-05-14T00:28:10.912Z,100885.77
2018-05-14T00:30:38.403Z,100878.17
2018-05-14T00:33:05.914Z,100867.08
2018-05-14T00:35:33.444Z,100866.55
2018-05-14T00:38:00.894Z,100874.66
2018-05-14T00:40:28.372Z,100868.41
2018-05-14T00:42:55.823Z,100873.36
2018-05-14T00:45:23.349Z,100884.33
2018-05-14T00:47:50.811Z,100873.75
2018-05-14T00:50:18.314Z,100874.05
2018-05-14T00:52:45.797Z,100877.50
2018-05-14T00:55:18.175Z,100882.73
2018-05-14T00:57:45.653Z,100885.00
2018-05-14T01:00:13.126Z,100880.16
2018-05-14T01:02:40.681Z,100879.22
2018-05-14T01:05:08.126Z,100884.45
2018-05-14T01:07:35.604Z,100883.73
2018-05-14T01:10:03.056Z,100890.02
2018-05-14T01:12:30.549Z,100888.48
2018-05-14T01:14:58.011Z,100886.47
2018-05-14T01:17:25.679Z,100886.98
2018-05-14T01:19:53.136Z,100886.07
2018-05-14T01:22:20.604Z,100889.44
2018-05-14T01:24:53.618Z,100892.23
2018-05-14T01:27:21.686Z,100890.91
2018-05-14T01:29:49.162Z,100888.56
2018-05-14T01:32:16.671Z,100891.72
2018-05-14T01:34:44.164Z,100886.67
2018-05-14T01:37:11.633Z,100887.36
2018-05-14T01:39:39.133Z,100890.48
2018-05-14T01:42:06.606Z,100895.11
2018-05-14T01:44:34.149Z,100893.20
2018-05-14T01:47:02.470Z,100889.88
2018-05-14T01:49:30.011Z,100895.22
2018-05-14T01:51:57.464Z,100897.50
2018-05-14T01:54:24.937Z,100897.38
2018-05-14T01:56:52.406Z,100896.84
2018-05-14T01:59:20.032Z,100897.90
2018-05-14T02:01:47.481Z,100895.66
2018-05-14T02:04:14.999Z,100907.17
2018-05-14T02:06:42.471Z,100915.20
2018-05-14T02:09:10.068Z,100910.59
2018-05-14T02:11:37.557Z,100910.98
2018-05-14T02:14:05.009Z,100910.30
2018-05-14T02:16:32.476Z,100914.70
2018-05-14T02:18:59.975Z,100911.40
2018-05-14T02:21:27.464Z,100915.48
2018-05-14T02:23:54.940Z,100908.51
2018-05-14T02:26:22.429Z,100914.48
2018-05-14T02:28:49.918Z,100916.17
2018-05-14T02:31:17.461Z,100918.11
2018-05-14T02:33:44.941Z,100925.54
2018-05-14T02:36:12.441Z,100922.73
2018-05-14T02:38:39.922Z,100916.84
2018-05-14T02:41:07.510Z,100921.16
2018-05-14T02:43:34.993Z,100918.91
2018-05-14T02:46:02.447Z,100920.30
2018-05-14T02:48:29.911Z,100923.91
2018-05-14T02:50:57.444Z,100926.62
2018-05-14T02:53:24.910Z,100919.95
2018-05-14T02:55:52.382Z,100930.42
2018-05-14T02:58:19.891Z,100924.73
2018-05-14T03:00:47.359Z,100925.64
2018-05-14T03:03:14.815Z,100928.41
2018-05-14T03:05:42.307Z,100929.75
2018-05-14T03:08:09.795Z,100931.23
2018-05-14T03:10:37.369Z,100928.13
2018-05-14T03:13:04.841Z,100929.33
2018-05-14T03:15:32.349Z,100932.33
2018-05-14T03:17:59.845Z,100933.54
2018-05-14T03:20:27.732Z,100936.54
2018-05-14T03:22:55.186Z,100933.81
2018-05-14T03:25:22.641Z,100941.99
2018-05-14T03:27:50.146Z,100933.69
2018-05-14T03:30:17.730Z,100936.02
2018-05-14T03:32:45.253Z,100934.95
2018-05-14T03:35:12.730Z,100934.09
2018-05-14T03:37:40.229Z,100935.08
2018-05-14T03:40:07.850Z,100939.41
2018-05-14T03:42:35.298Z,100942.27
2018-05-14T03:45:02.780Z,100949.22
2018-05-14T03:47:30.285Z,100947.55
2018-05-14T03:49:57.934Z,100948.38
2018-05-14T03:52:25.380Z,100946.17
2018-05-14T03:54:52.861Z,100945.79
2018-05-14T03:57:20.341Z,100951.10
2018-05-14T03:59:59.704Z,100952.61
2018-05-14T04:02:38.791Z,100944.73
2018-05-14T04:05:10.901Z,100950.84
2018-05-14T04:07:38.369Z,100953.29
2018-05-14T04:10:05.833Z,100959.25
2018-05-14T04:12:33.321Z,100961.28
2018-05-14T04:15:00.775Z,100959.25
2018-05-14T04:17:28.297Z,100962.63
2018-05-14T04:19:55.774Z,100962.64
2018-05-14T04:22:23.243Z,100960.34
2018-05-14T04:24:50.747Z,100960.44
2018-05-14T04:27:18.221Z,100965.77
2018-05-14T04:29:45.701Z,100959.91
2018-05-14T04:32:13.164Z,100965.61
2018-05-14T04:34:40.654Z,100966.42
2018-05-14T04:37:08.133Z,100962.48
2018-05-14T04:39:35.626Z,100972.94
2018-05-14T04:42:03.074Z,100978.62
2018-05-14T04:44:30.518Z,100982.02
2018-05-14T04:46:57.982Z,100979.54
2018-05-14T04:49:25.564Z,100985.69
2018-05-14T04:51:53.082Z,100983.49
2018-05-14T04:54:20.557Z,100983.79
2018-05-14T04:56:48.023Z,100979.97
2018-05-14T04:59:15.668Z,100989.59
2018-05-14T05:01:43.173Z,100993.67
2018-05-14T05:04:10.638Z,100991.08
2018-05-14T05:06:38.229Z,100989.06
2018-05-14T05:09:05.737Z,100987.71
2018-05-14T05:11:33.232Z,100989.72
2018-05-14T05:14:00.728Z,100992.73
2018-05-14T05:16:28.286Z,100989.30
2018-05-14T05:18:55.878Z,100990.91
2018-05-14T05:21:23.378Z,100982.66
2018-05-14T05:23:50.857Z,100992.13
2018-05-14T05:26:18.357Z,100990.77
2018-05-14T05:28:45.876Z,100990.73
2018-05-14T05:31:14.076Z,100995.26
2018-05-14T05:33:41.584Z,100995.23
2018-05-14T05:36:09.053Z,101005.89
2018-05-14T05:38:36.532Z,101007.17
2018-05-14T05:41:04.027Z,101001.68
2018-05-14T05:43:31.525Z,101000.43
2018-05-14T05:45:59.000Z,100998.15
2018-05-14T05:48:26.478Z,100996.76
2018-05-14T05:50:53.948Z,100998.51
2018-05-14T05:53:21.492Z,101001.38
2018-05-14T05:55:49.002Z,101001.88
2018-05-14T05:58:16.459Z,101004.46
2018-05-14T06:00:43.970Z,101013.27
2018-05-14T06:03:11.591Z,101017.34
2018-05-14T06:05:39.096Z,101007.63
2018-05-14T06:08:06.664Z,101010.23
2018-05-14T06:10:34.207Z,101012.52
2018-05-14T06:13:01.699Z,101014.16
2018-05-14T06:15:29.273Z,101017.16
2018-05-14T06:17:56.671Z,101025.94
2018-05-14T06:20:24.145Z,101018.59
2018-05-14T06:22:51.705Z,101016.37
2018-05-14T06:25:19.159Z,101011.47
2018-05-14T06:27:46.649Z,101013.38
2018-05-14T06:30:14.189Z,101013.08
2018-05-14T06:32:41.710Z,101015.09
2018-05-14T06:35:09.182Z,101007.88
2018-05-14T06:37:36.850Z,101010.37
2018-05-14T06:40:04.314Z,101015.59
2018-05-14T06:42:31.833Z,101018.22
2018-05-14T06:44:59.302Z,101010.85
2018-05-14T06:47:26.758Z,101017.06
2018-05-14T06:49:54.355Z,101025.92
2018-05-14T06:52:21.825Z,101020.08
2018-05-14T06:54:49.316Z,101024.63
2018-05-14T06:57:16.789Z,101023.17
2018-05-14T06:59:44.273Z,101022.94
2018-05-14T07:02:11.730Z,101021.09
2018-05-14T07:04:39.218Z,101026.80
2018-05-14T07:07:06.693Z,101024.28
2018-05-14T07:09:34.169Z,101021.98
2018-05-14T07:12:01.648Z,101021.21
2018-05-14T07:14:29.197Z,101016.87
2018-05-14T07:16:56.692Z,101024.30
2018-05-14T07:19:24.250Z,101027.05
2018-05-14T07:21:51.713Z,101018.29
2018-05-14T07:24:19.283Z,101024.03
2018-05-14T07:26:46.792Z,101025.73
2018-05-14T07:29:14.265Z,101023.46
2018-05-14T07:31:41.765Z,101024.13
2018-05-14T07:34:09.385Z,101018.85
2018-05-14T07:36:36.864Z,101021.20
2018-05-14T07:39:04.406Z,101026.70
2018-05-14T07:41:31.876Z,101028.64
2018-05-14T07:43:59.424Z,101027.22
2018-05-14T07:46:26.878Z,101034.10
2018-05-14T07:48:54.385Z,101031.73
2018-05-14T07:51:21.852Z,101024.94
2018-05-14T07:53:49.487Z,101031.47
2018-05-14T07:56:16.952Z,101038.55
2018-05-14T07:58:44.406Z,101034.02
2018-05-14T08:01:11.911Z,101036.02
2018-05-14T08:03:39.404Z,101037.31
2018-05-14T08:06:06.972Z,101035.95
2018-05-14T08:08:34.443Z,101030.45
2018-05-14T08:11:01.922Z,101032.73
2018-05-14T08:13:29.375Z,101026.59
2018-05-14T08:15:56.840Z,101030.94
2018-05-14T08:18:24.352Z,101022.82
2018-05-14T08:20:51.856Z,101023.37
2018-05-14T08:23:19.308Z,101031.66
2018-05-14T08:25:46.813Z,101024.64
2018-05-14T08:28:14.296Z,101021.16
2018-05-14T08:30:42.682Z,101016.41
2018-05-14T08:33:10.176Z,101019.41
2018-05-14T08:35:37.629Z,101015.89
2018-05-14T08:38:05.218Z,101022.09
2018-05-14T08:40:32.769Z,101026.19
2018-05-14T08:43:00.250Z,101024.34
2018-05-14T08:45:27.697Z,101025.21
2018-05-14T08:47:56.344Z,101025.73
2018-05-14T08:50:23.782Z,101023.73
2018-05-14T08:52:51.266Z,101022.31
2018-05-14T08:55:18.715Z,101022.91
2018-05-14T08:57:46.189Z,101027.98
2018-05-14T09:00:13.680Z,101020.73
2018-05-14T09:02:41.184Z,101019.72
2018-05-14T09:05:08.705Z,101023.05
2018-05-14T09:07:36.202Z,101032.76
2018-05-14T09:10:03.691Z,101024.52
2018-05-14T09:12:31.181Z,101024.77
2018-05-14T09:14:58.683Z,101025.27
2018-05-14T09:17:26.163Z,101024.53
2018-05-14T09:19:53.791Z,101019.04
2018-05-14T09:22:21.269Z,101013.55
2018-05-14T09:24:48.753Z,101016.67
2018-05-14T09:27:16.221Z,101015.70
2018-05-14T09:29:43.843Z,101017.38
2018-05-14T09:32:11.358Z,101017.08
2018-05-14T09:34:38.832Z,101013.48
2018-05-14T09:37:06.404Z,101007.42
2018-05-14T09:39:33.886Z,101012.05
2018-05-14T09:42:01.362Z,101004.51
2018-05-14T09:44:28.863Z,101008.41
2018-05-14T09:46:56.322Z,101003.30
2018-05-14T09:49:23.842Z,101011.98
2018-05-14T09:51:51.341Z,101011.61
2018-05-14T09:54:18.810Z,101000.83
2018-05-14T09:56:46.293Z,101012.17
2018-05-14T09:59:13.748Z,101003.18
2018-05-14T10:01:41.220Z,101008.36
2018-05-14T10:04:08.713Z,100995.01
2018-05-14T10:06:36.197Z,101005.26
2018-05-14T10:09:03.689Z,101004.37
2018-05-14T10:11:31.329Z,101003.20
2018-05-14T10:13:58.809Z,101003.27
2018-05-14T10:16:26.266Z,101004.42
2018-05-14T10:18:53.880Z,101004.31
2018-05-14T10:21:21.402Z,101006.39
2018-05-14T10:23:48.882Z,101003.93
2018-05-14T10:26:16.336Z,101004.05
2018-05-14T10:28:43.823Z,101013.08
2018-05-14T10:31:11.343Z,101006.99
2018-05-14T10:33:39.712Z,101009.30
2018-05-14T10:36:07.168Z,101005.81
2018-05-14T10:38:34.638Z,101007.73
2018-05-14T10:41:02.177Z,101010.78
2018-05-14T10:43:29.737Z,101008.14
2018-05-14T10:45:57.196Z,101006.05
2018-05-14T10:48:24.681Z,101003.56
2018-05-14T10:50:52.138Z,101004.61
2018-05-14T10:53:20.451Z,101001.67
2018-05-14T10:55:48.032Z,101000.05
2018-05-14T10:58:15.499Z,101011.25
2018-05-14T11:00:42.974Z,100998.27
2018-05-14T11:03:10.455Z,101006.63
2018-05-14T11:05:38.050Z,101010.61
2018-05-14T11:08:05.549Z,101013.65
2018-05-14T11:10:33.091Z,101019.28
2018-05-14T11:13:00.553Z,101014.38
2018-05-14T11:15:28.169Z,101005.70
2018-05-14T11:17:55.657Z,101012.63
2018-05-14T11:20:23.115Z,101025.32
2018-05-14T11:22:50.561Z,101021.62
2018-05-14T11:25:18.040Z,101016.62
2018-05-14T11:27:45.627Z,101016.27
2018-05-14T11:30:13.064Z,101012.65
2018-05-14T11:32:40.515Z,101012.73
2018-05-14T11:35:08.054Z,101018.68
2018-05-14T11:37:35.587Z,101023.42
2018-05-14T11:40:03.035Z,101021.59
2018-05-14T11:42:30.535Z,101013.94
2018-05-14T11:44:57.983Z,101015.71
2018-05-14T11:47:25.681Z,101011.37
2018-05-14T11:49:53.147Z,101004.06
2018-05-14T11:52:20.620Z,101007.42
2018-05-14T11:54:48.238Z,101010.02
2018-05-14T11:57:15.700Z,101018.00
2018-05-14T11:59:43.198Z,101012.79
2018-05-14T12:02:10.655Z,101009.03
2018-05-14T12:04:38.173Z,101002.89
2018-05-14T12:07:05.719Z,101016.51
2018-05-14T12:09:33.319Z,101008.62
2018-05-14T12:12:00.792Z,101008.33
2018-05-14T12:14:28.266Z,101005.24
2018-05-14T12:16:55.861Z,101003.52
2018-05-14T12:19:23.329Z,101007.31
2018-05-14T12:21:50.827Z,101011.34
2018-05-14T12:24:18.298Z,101017.40
2018-05-14T12:26:45.823Z,101012.37
2018-05-14T12:29:14.324Z,101010.60
2018-05-14T12:31:41.792Z,101008.75
2018-05-14T12:34:09.281Z,101005.59
2018-05-14T12:36:36.742Z,101012.27
2018-05-14T12:39:04.237Z,101015.53
2018-05-14T12:41:31.713Z,101014.70
2018-05-14T12:43:59.209Z,101019.75
2018-05-14T12:46:26.681Z,101011.30
2018-05-14T12:48:54.130Z,101009.75
2018-05-14T12:51:21.608Z,101007.27
2018-05-14T12:53:49.069Z,101009.57
2018-05-14T12:56:16.561Z,101000.29
2018-05-14T12:58:44.008Z,101000.03
2018-05-14T13:01:11.594Z,100995.73
2018-05-14T13:03:39.073Z,100993.27
2018-05-14T13:06:06.584Z,100992.79
2018-05-14T13:08:34.095Z,100997.22
2018-05-14T13:11:01.645Z,100988.20
2018-05-14T13:13:29.169Z,100997.92
2018-05-14T13:15:56.628Z,101007.72
2018-05-14T13:18:24.193Z,101019.68
2018-05-14T13:20:51.651Z,101016.66
2018-05-14T13:23:19.128Z,101005.33
2018-05-14T13:25:46.600Z,101010.89
2018-05-14T13:28:14.137Z,101009.99
2018-05-14T13:30:41.655Z,101000.20
2018-05-14T13:33:09.103Z,101007.03
2018-05-14T13:35:36.609Z,101009.09
2018-05-14T13:38:04.309Z,101008.20
2018-05-14T13:43:19.265Z,101002.84
2018-05-14T13:45:46.767Z,101008.74
2018-05-14T13:48:14.417Z,101000.18
2018-05-14T13:50:41.898Z,100995.81
2018-05-14T13:53:09.366Z,100994.32
2018-05-14T13:55:36.853Z,100991.83
2018-05-14T13:58:05.253Z,100994.00
2018-05-14T14:00:32.708Z,100991.52
2018-05-14T14:03:00.198Z,100991.42
2018-05-14T14:05:27.671Z,100987.88
2018-05-14T14:07:55.172Z,100988.20
2018-05-14T14:10:22.656Z,100990.79
2018-05-14T14:12:50.146Z,100996.06
2018-05-14T14:15:17.618Z,100997.78
2018-05-14T14:20:48.272Z,101000.11
2018-05-14T14:23:15.880Z,101003.05
2018-05-14T14:25:43.353Z,101003.66
2018-05-14T14:28:11.684Z,100997.84
2018-05-14T14:30:39.152Z,101000.31
2018-05-14T14:33:06.626Z,101009.55
2018-05-14T14:35:34.117Z,101009.52
2018-05-14T14:38:01.580Z,101004.73
2018-05-14T14:40:29.081Z,101020.15
2018-05-14T14:42:56.877Z,101004.22
2018-05-14T14:45:24.463Z,100994.05
2018-05-14T14:47:52.967Z,101004.11
2018-05-14T14:50:20.510Z,100993.95
2018-05-14T14:52:48.073Z,101000.95
2018-05-14T14:55:15.994Z,100997.39
2018-05-14T15:00:22.309Z,101012.38
2018-05-14T15:02:50.797Z,100995.02
2018-05-14T15:05:18.296Z,101000.73
2018-05-14T15:07:45.793Z,100996.58
2018-05-14T15:10:13.269Z,100995.00
2018-05-14T15:12:40.763Z,100997.56
2018-05-14T15:15:08.262Z,101001.04
2018-05-14T15:17:35.762Z,100997.88
2018-05-14T15:20:03.253Z,100997.39
2018-05-14T15:22:30.726Z,101008.23
2018-05-14T15:24:58.232Z,101005.63
2018-05-14T15:27:25.711Z,100995.55
2018-05-14T15:29:53.245Z,101000.61
2018-05-14T15:32:20.716Z,100999.30
2018-05-14T15:34:48.204Z,100998.67
2018-05-14T15:37:15.660Z,100999.84
2018-05-14T15:39:47.953Z,101001.17
2018-05-14T15:42:15.436Z,101010.20
2018-05-14T15:44:42.912Z,101003.29
2018-05-14T15:47:10.378Z,101007.94
2018-05-14T15:49:46.414Z,101008.06
2018-05-14T15:52:21.874Z,101008.53
2018-05-14T15:54:49.378Z,101008.56
2018-05-14T15:57:16.833Z,100997.55
2018-05-14T15:59:44.289Z,100999.05
2018-05-14T16:02:11.792Z,100993.17
2018-05-14T16:04:39.265Z,100997.61
2018-05-14T16:07:06.746Z,100995.09
2018-05-14T16:09:34.210Z,100995.20
2018-05-14T16:12:01.740Z,100992.73
2018-05-14T16:14:29.308Z,100999.22
2018-05-14T16:16:56.729Z,100996.50
2018-05-14T16:19:24.228Z,100999.25
2018-05-14T16:21:52.426Z,101001.70
2018-05-14T16:24:20.027Z,101003.69
2018-05-14T16:26:47.502Z,101008.46
2018-05-14T16:29:14.978Z,101006.34
2018-05-14T16:31:42.451Z,101006.77
2018-05-14T16:34:10.078Z,101013.73
2018-05-14T16:36:37.718Z,101009.13
2018-05-14T16:39:05.883Z,101003.92
2018-05-14T16:41:33.394Z,101002.80
2018-05-14T16:44:01.600Z,101002.20
2018-05-14T16:46:29.130Z,101003.58
2018-05-14T16:48:57.465Z,100999.30
2018-05-14T16:51:25.180Z,101004.02
2018-05-14T16:53:54.378Z,100998.69
2018-05-14T16:56:24.317Z,100996.98
2018-05-14T16:58:51.795Z,101000.21
2018-05-14T17:01:19.245Z,100996.92
2018-05-14T17:03:49.142Z,100994.97
2018-05-14T17:06:16.591Z,100995.23
2018-05-14T17:08:44.075Z,100997.73
2018-05-14T17:11:11.547Z,100996.79
2018-05-14T17:13:39.046Z,100997.64
2018-05-14T17:16:06.724Z,101002.29
2018-05-14T17:18:34.193Z,101001.47
2018-05-14T17:21:01.812Z,101001.78
2018-05-14T17:23:29.280Z,100999.45
2018-05-14T17:25:56.771Z,100993.52
2018-05-14T17:28:24.242Z,101004.25
2018-05-14T17:30:53.929Z,101006.36
2018-05-14T17:33:21.415Z,101003.94
2018-05-14T17:35:49.371Z,101000.62
2018-05-14T17:38:16.839Z,101006.66
2018-05-14T17:40:44.291Z,101002.78
2018-05-14T17:43:11.795Z,100997.45
2018-05-14T17:45:39.297Z,101001.69
2018-05-14T17:48:06.798Z,101007.49
2018-05-14T17:50:34.277Z,101001.00
2018-05-14T17:53:01.771Z,101004.48
2018-05-14T17:55:29.329Z,101008.45
2018-05-14T17:57:56.795Z,101011.66
2018-05-14T18:00:24.906Z,101018.52
2018-05-14T18:02:52.433Z,101012.09
2018-05-14T18:05:20.000Z,101015.67
2018-05-14T18:07:47.530Z,101018.19
2018-05-14T18:10:15.037Z,101020.02
2018-05-14T18:12:42.644Z,101020.84
2018-05-14T18:15:10.115Z,101023.52
2018-05-14T18:17:37.751Z,101026.77
2018-05-14T18:20:10.836Z,101022.18
2018-05-14T18:22:40.801Z,101029.27
2018-05-14T18:25:13.928Z,101030.52
2018-05-14T18:27:46.884Z,101034.95
2018-05-14T18:30:14.364Z,101034.82
2018-05-14T18:35:54.397Z,101038.11
2018-05-14T18:38:21.866Z,101037.06
2018-05-14T18:40:49.322Z,101046.23
2018-05-14T18:43:16.816Z,101050.40
2018-05-14T18:45:44.295Z,101048.16
2018-05-14T18:48:11.768Z,101057.34
2018-05-14T18:50:39.253Z,101063.42
2018-05-14T18:53:06.806Z,101075.91
2018-05-14T18:55:34.311Z,101077.24
2018-05-14T18:58:01.816Z,101083.48
2018-05-14T19:00:29.932Z,101083.28
2018-05-14T19:02:57.420Z,101091.45
2018-05-14T19:05:24.941Z,101093.88
2018-05-14T19:07:52.435Z,101093.16
2018-05-14T19:10:25.633Z,101098.99
2018-05-14T19:12:53.128Z,101108.37
2018-05-14T19:15:26.310Z,101103.50
2018-05-14T19:17:59.439Z,101109.30
2018-05-14T19:20:26.941Z,101113.45
2018-05-14T19:22:59.878Z,101110.17
2018-05-14T19:25:27.398Z,101116.97
2018-05-14T19:53:53.579Z,101143.43
2018-05-14T19:56:21.095Z,101146.48
2018-05-14T19:58:57.517Z,101147.58
2018-05-14T20:01:25.006Z,101154.61
2018-05-14T20:03:52.513Z,101160.32
2018-05-14T20:06:20.018Z,101161.85
2018-05-14T20:11:37.513Z,101166.21
2018-05-14T20:14:08.218Z,101167.98
2018-05-14T20:16:42.147Z,101163.47
2018-05-14T20:19:09.644Z,101168.89
2018-05-14T20:21:37.169Z,101167.36
2018-05-14T20:24:04.806Z,101168.26
2018-05-14T20:26:32.305Z,101174.03
2018-05-14T20:28:59.818Z,101176.66
2018-05-14T20:31:27.311Z,101181.03
2018-05-14T20:33:54.821Z,101183.98
2018-05-14T20:36:35.883Z,101190.88
2018-05-14T20:39:03.372Z,101191.97
2018-05-14T20:41:30.869Z,101202.58
2018-05-14T20:43:58.339Z,101206.67
2018-05-14T20:46:25.874Z,101202.67
2018-05-14T20:48:53.385Z,101214.06
2018-05-14T20:51:20.851Z,101219.20
2018-05-14T20:53:48.356Z,101221.56
2018-05-14T20:56:15.838Z,101217.43
2018-05-14T20:58:43.405Z,101220.86
2018-05-14T21:01:10.881Z,101224.39
2018-05-14T21:03:38.393Z,101224.19
2018-05-14T21:06:05.878Z,101226.29
2018-05-14T21:08:33.687Z,101229.87
2018-05-14T21:11:01.170Z,101229.30
2018-05-14T21:13:28.640Z,101231.81
2018-05-14T21:15:56.131Z,101233.11
2018-05-14T21:18:23.580Z,101231.55
2018-05-14T21:20:55.870Z,101231.86
2018-05-14T21:23:23.364Z,101232.98
2018-05-14T21:25:50.880Z,101235.34
2018-05-14T21:28:18.376Z,101232.94
2018-05-14T21:30:45.954Z,101235.88
2018-05-14T21:33:13.502Z,101237.79
2018-05-14T21:35:40.997Z,101237.29
2018-05-14T21:38:08.469Z,101239.44
2018-05-14T21:40:35.987Z,101243.55
2018-05-14T21:43:03.474Z,101243.67
2018-05-14T21:45:30.947Z,101246.17
2018-05-14T21:47:58.436Z,101254.03
2018-05-14T21:50:25.992Z,101246.05
2018-05-14T21:52:53.484Z,101248.24
2018-05-14T21:55:20.958Z,101248.26
2018-05-14T21:57:48.487Z,101248.73
2018-05-14T22:00:16.043Z,101253.95
2018-05-14T22:02:43.554Z,101251.28
2018-05-14T22:05:11.037Z,101248.35
2018-05-14T22:07:38.539Z,101245.94
2018-05-14T22:10:06.020Z,101249.75
2018-05-14T22:12:33.529Z,101258.28
2018-05-14T22:15:01.095Z,101255.14
2018-05-14T22:17:28.571Z,101266.12
2018-05-14T22:19:56.146Z,101263.17
2018-05-14T22:22:23.640Z,101265.78
2018-05-14T22:24:51.145Z,101265.52
2018-05-14T22:27:18.635Z,101263.84
2018-05-14T22:29:46.540Z,101267.08
2018-05-14T22:32:14.043Z,101266.95
2018-05-14T22:34:41.571Z,101270.20
2018-05-14T22:37:09.054Z,101277.83
2018-05-14T22:39:36.530Z,101268.20
2018-05-14T22:42:04.119Z,101270.09
2018-05-14T22:44:31.627Z,101269.94
2018-05-14T22:46:59.159Z,101275.81
2018-05-14T22:49:26.653Z,101274.37
2018-05-14T22:51:54.142Z,101267.09
2018-05-14T22:54:33.414Z,101269.98
2018-05-14T22:57:00.889Z,101268.97
2018-05-14T22:59:28.373Z,101270.01
2018-05-14T23:01:55.892Z,101276.03
2018-05-14T23:04:23.410Z,101271.16
2018-05-14T23:06:50.921Z,101265.37
2018-05-14T23:09:18.407Z,101265.81
2018-05-14T23:11:45.959Z,101265.70
2018-05-14T23:14:13.523Z,101264.61
2018-05-14T23:16:41.080Z,101263.66
2018-05-14T23:19:08.619Z,101262.77
2018-05-14T23:21:36.109Z,101273.33
2018-05-14T23:24:03.692Z,101266.38
2018-05-14T23:26:31.198Z,101266.20
2018-05-14T23:28:58.717Z,101262.75
2018-05-14T23:31:26.247Z,101261.91
2018-05-14T23:33:53.716Z,101262.02
2018-05-14T23:36:21.267Z,101252.91
2018-05-14T23:38:48.744Z,101256.89
2018-05-14T23:41:16.247Z,101257.61
2018-05-14T23:43:43.764Z,101257.69
2018-05-14T23:46:11.260Z,101261.28
2018-05-14T23:48:38.770Z,101263.17
2018-05-14T23:51:06.342Z,101263.78
2018-05-14T23:53:33.891Z,101258.09
2018-05-14T23:56:01.363Z,101268.08
2018-05-14T23:58:28.872Z,101260.85
